sensor_id;sensor_type;location;lat;lon;timestamp;P1;durP1;ratioP1;P2;durP2;ratioP2
9424;SDS011;17139;52.140;11.636;2022-08-02T00:00:54;1.63;;;1.33;;
9424;SDS011;17139;52.140;11.636;2022-08-02T00:03:22;1.50;;;1.40;;
9424;SDS011;17139;52.140;11.636;2022-08-02T00:05:50;2.08;;;1.88;;
9424;SDS011;17139;52.140;11.636;2022-08-02T00:08:17;1.92;;;1.75;;
9424;SDS011;17139;52.140;11.636;2022-08-02T00:10:44;3.30;;;1.95;;
9424;SDS011;17139;52.140;11.636;2022-08-02T00:13:11;3.80;;;1.67;;
9424;SDS011;17139;52.140;11.636;2022-08-02T00:15:38;5.55;;;2.10;;
9424;SDS011;17139;52.140;11.636;2022-08-02T00:18:05;2.00;;;1.75;;
9424;SDS011;17139;52.140;11.636;2022-08-02T00:20:34;5.55;;;2.10;;
9424;SDS011;17139;52.140;11.636;2022-08-02T00:23:01;1.70;;;1.45;;
9424;SDS011;17139;52.140;11.636;2022-08-02T00:25:28;3.88;;;1.63;;
9424;SDS011;17139;52.140;11.636;2022-08-02T00:27:55;4.10;;;1.67;;
9424;SDS011;17139;52.140;11.636;2022-08-02T00:30:22;3.08;;;1.65;;
9424;SDS011;17139;52.140;11.636;2022-08-02T00:32:49;3.95;;;2.15;;
9424;SDS011;17139;52.140;11.636;2022-08-02T00:35:19;4.80;;;2.28;;
9424;SDS011;17139;52.140;11.636;2022-08-02T00:37:47;1.63;;;1.52;;
9424;SDS011;17139;52.140;11.636;2022-08-02T00:40:14;2.55;;;1.95;;
9424;SDS011;17139;52.140;11.636;2022-08-02T00:42:41;3.17;;;2.00;;
9424;SDS011;17139;52.140;11.636;2022-08-02T00:45:09;4.72;;;1.70;;
9424;SDS011;17139;52.140;11.636;2022-08-02T00:47:36;3.50;;;1.42;;
9424;SDS011;17139;52.140;11.636;2022-08-02T00:50:03;1.70;;;1.58;;
9424;SDS011;17139;52.140;11.636;2022-08-02T00:52:31;1.88;;;1.77;;
9424;SDS011;17139;52.140;11.636;2022-08-02T00:54:59;2.45;;;1.52;;
9424;SDS011;17139;52.140;11.636;2022-08-02T00:57:26;2.33;;;1.45;;
9424;SDS011;17139;52.140;11.636;2022-08-02T00:59:53;2.72;;;1.52;;
9424;SDS011;17139;52.140;11.636;2022-08-02T01:02:20;1.98;;;1.80;;
9424;SDS011;17139;52.140;11.636;2022-08-02T01:04:47;1.67;;;1.58;;
9424;SDS011;17139;52.140;11.636;2022-08-02T01:07:14;2.00;;;1.63;;
9424;SDS011;17139;52.140;11.636;2022-08-02T01:09:45;1.90;;;1.60;;
9424;SDS011;17139;52.140;11.636;2022-08-02T01:12:13;4.13;;;1.70;;
9424;SDS011;17139;52.140;11.636;2022-08-02T01:14:41;4.15;;;1.98;;
9424;SDS011;17139;52.140;11.636;2022-08-02T01:17:13;1.70;;;1.60;;
9424;SDS011;17139;52.140;11.636;2022-08-02T01:19:46;1.65;;;1.40;;
9424;SDS011;17139;52.140;11.636;2022-08-02T01:25:14;7.82;;;2.20;;
9424;SDS011;17139;52.140;11.636;2022-08-02T01:30:52;1.90;;;1.80;;
9424;SDS011;17139;52.140;11.636;2022-08-02T01:33:25;4.47;;;2.33;;
9424;SDS011;17139;52.140;11.636;2022-08-02T01:35:58;5.50;;;1.80;;
9424;SDS011;17139;52.140;11.636;2022-08-02T01:38:28;3.97;;;2.10;;
9424;SDS011;17139;52.140;11.636;2022-08-02T01:40:59;2.53;;;1.88;;
9424;SDS011;17139;52.140;11.636;2022-08-02T01:43:30;2.17;;;1.83;;
9424;SDS011;17139;52.140;11.636;2022-08-02T01:46:01;2.80;;;1.90;;
9424;SDS011;17139;52.140;11.636;2022-08-02T01:48:30;3.40;;;1.67;;
9424;SDS011;17139;52.140;11.636;2022-08-02T01:50:59;2.20;;;1.80;;
9424;SDS011;17139;52.140;11.636;2022-08-02T01:53:29;2.65;;;1.50;;
9424;SDS011;17139;52.140;11.636;2022-08-02T01:55:57;4.47;;;1.90;;
9424;SDS011;17139;52.140;11.636;2022-08-02T01:58:26;2.05;;;1.85;;
9424;SDS011;17139;52.140;11.636;2022-08-02T02:00:57;2.20;;;2.00;;
9424;SDS011;17139;52.140;11.636;2022-08-02T02:03:26;5.90;;;2.20;;
9424;SDS011;17139;52.140;11.636;2022-08-02T02:05:55;2.03;;;1.75;;
9424;SDS011;17139;52.140;11.636;2022-08-02T02:08:35;2.78;;;1.98;;
9424;SDS011;17139;52.140;11.636;2022-08-02T02:11:05;3.85;;;1.52;;
9424;SDS011;17139;52.140;11.636;2022-08-02T02:13:33;6.20;;;2.00;;
9424;SDS011;17139;52.140;11.636;2022-08-02T02:16:04;2.65;;;1.70;;
9424;SDS011;17139;52.140;11.636;2022-08-02T02:18:33;3.28;;;1.95;;
9424;SDS011;17139;52.140;11.636;2022-08-02T02:21:04;3.60;;;1.70;;
9424;SDS011;17139;52.140;11.636;2022-08-02T02:23:32;5.63;;;1.80;;
9424;SDS011;17139;52.140;11.636;2022-08-02T02:25:59;10.25;;;1.90;;
9424;SDS011;17139;52.140;11.636;2022-08-02T02:28:30;6.80;;;1.98;;
9424;SDS011;17139;52.140;11.636;2022-08-02T02:31:02;2.75;;;1.92;;
9424;SDS011;17139;52.140;11.636;2022-08-02T02:33:32;2.10;;;1.60;;
9424;SDS011;17139;52.140;11.636;2022-08-02T02:36:04;5.57;;;2.03;;
9424;SDS011;17139;52.140;11.636;2022-08-02T02:38:35;3.28;;;2.40;;
9424;SDS011;17139;52.140;11.636;2022-08-02T02:41:03;3.20;;;1.90;;
9424;SDS011;17139;52.140;11.636;2022-08-02T02:43:32;3.10;;;1.80;;
9424;SDS011;17139;52.140;11.636;2022-08-02T02:46:00;2.33;;;1.88;;
9424;SDS011;17139;52.140;11.636;2022-08-02T02:48:32;4.45;;;1.88;;
9424;SDS011;17139;52.140;11.636;2022-08-02T02:51:02;3.33;;;2.00;;
9424;SDS011;17139;52.140;11.636;2022-08-02T02:53:31;3.78;;;1.90;;
9424;SDS011;17139;52.140;11.636;2022-08-02T02:56:00;5.18;;;2.08;;
9424;SDS011;17139;52.140;11.636;2022-08-02T02:58:28;5.55;;;1.80;;
9424;SDS011;17139;52.140;11.636;2022-08-02T03:00:56;2.35;;;2.17;;
9424;SDS011;17139;52.140;11.636;2022-08-02T03:03:43;5.85;;;2.20;;
9424;SDS011;17139;52.140;11.636;2022-08-02T03:06:11;2.00;;;1.85;;
9424;SDS011;17139;52.140;11.636;2022-08-02T03:08:39;2.30;;;2.10;;
9424;SDS011;17139;52.140;11.636;2022-08-02T03:11:06;3.13;;;2.05;;
9424;SDS011;17139;52.140;11.636;2022-08-02T03:13:34;2.30;;;2.08;;
9424;SDS011;17139;52.140;11.636;2022-08-02T03:16:03;4.40;;;2.40;;
9424;SDS011;17139;52.140;11.636;2022-08-02T03:18:30;3.97;;;2.05;;
9424;SDS011;17139;52.140;11.636;2022-08-02T03:21:01;2.60;;;2.15;;
9424;SDS011;17139;52.140;11.636;2022-08-02T03:23:29;4.22;;;2.58;;
9424;SDS011;17139;52.140;11.636;2022-08-02T03:25:56;2.22;;;1.60;;
9424;SDS011;17139;52.140;11.636;2022-08-02T03:28:24;3.63;;;2.38;;
9424;SDS011;17139;52.140;11.636;2022-08-02T03:30:51;4.38;;;2.25;;
9424;SDS011;17139;52.140;11.636;2022-08-02T03:33:18;2.75;;;2.30;;
9424;SDS011;17139;52.140;11.636;2022-08-02T03:35:47;5.10;;;2.58;;
9424;SDS011;17139;52.140;11.636;2022-08-02T03:38:17;3.97;;;2.13;;
9424;SDS011;17139;52.140;11.636;2022-08-02T03:40:47;2.30;;;1.90;;
9424;SDS011;17139;52.140;11.636;2022-08-02T03:43:15;3.88;;;2.45;;
9424;SDS011;17139;52.140;11.636;2022-08-02T03:45:43;4.78;;;2.50;;
9424;SDS011;17139;52.140;11.636;2022-08-02T03:48:12;2.25;;;2.05;;
9424;SDS011;17139;52.140;11.636;2022-08-02T03:50:40;2.30;;;2.20;;
9424;SDS011;17139;52.140;11.636;2022-08-02T03:53:08;3.78;;;2.65;;
9424;SDS011;17139;52.140;11.636;2022-08-02T03:55:37;5.82;;;2.20;;
9424;SDS011;17139;52.140;11.636;2022-08-02T03:58:05;3.05;;;2.53;;
9424;SDS011;17139;52.140;11.636;2022-08-02T04:00:32;5.10;;;2.53;;
9424;SDS011;17139;52.140;11.636;2022-08-02T04:02:59;2.60;;;2.20;;
9424;SDS011;17139;52.140;11.636;2022-08-02T04:05:26;4.40;;;2.90;;
9424;SDS011;17139;52.140;11.636;2022-08-02T04:07:53;4.63;;;2.10;;
9424;SDS011;17139;52.140;11.636;2022-08-02T06:41:09;5.95;;;2.22;;
9424;SDS011;17139;52.140;11.636;2022-08-02T06:43:42;5.10;;;2.13;;
9424;SDS011;17139;52.140;11.636;2022-08-02T06:46:15;4.78;;;2.33;;
9424;SDS011;17139;52.140;11.636;2022-08-02T06:48:42;1.98;;;1.77;;
9424;SDS011;17139;52.140;11.636;2022-08-02T06:51:09;2.42;;;2.10;;
9424;SDS011;17139;52.140;11.636;2022-08-02T06:53:37;4.80;;;2.20;;
9424;SDS011;17139;52.140;11.636;2022-08-02T06:56:04;5.70;;;2.00;;
9424;SDS011;17139;52.140;11.636;2022-08-02T06:58:33;4.25;;;2.03;;
9424;SDS011;17139;52.140;11.636;2022-08-02T07:01:00;6.40;;;2.35;;
9424;SDS011;17139;52.140;11.636;2022-08-02T07:03:31;3.22;;;2.22;;
9424;SDS011;17139;52.140;11.636;2022-08-02T07:05:58;2.58;;;1.88;;
9424;SDS011;17139;52.140;11.636;2022-08-02T07:08:26;3.17;;;2.28;;
9424;SDS011;17139;52.140;11.636;2022-08-02T07:10:56;2.85;;;1.88;;
9424;SDS011;17139;52.140;11.636;2022-08-02T07:13:25;4.55;;;1.88;;
9424;SDS011;17139;52.140;11.636;2022-08-02T07:15:53;2.65;;;1.90;;
9424;SDS011;17139;52.140;11.636;2022-08-02T07:18:21;4.57;;;2.00;;
9424;SDS011;17139;52.140;11.636;2022-08-02T07:20:48;5.28;;;1.75;;
9424;SDS011;17139;52.140;11.636;2022-08-02T07:23:15;5.65;;;1.80;;
9424;SDS011;17139;52.140;11.636;2022-08-02T07:25:43;4.38;;;2.20;;
9424;SDS011;17139;52.140;11.636;2022-08-02T07:28:10;3.45;;;1.80;;
9424;SDS011;17139;52.140;11.636;2022-08-02T07:30:39;4.40;;;2.05;;
9424;SDS011;17139;52.140;11.636;2022-08-02T07:33:08;3.42;;;1.75;;
9424;SDS011;17139;52.140;11.636;2022-08-02T07:35:35;5.65;;;1.90;;
9424;SDS011;17139;52.140;11.636;2022-08-02T07:38:02;4.07;;;1.88;;
9424;SDS011;17139;52.140;11.636;2022-08-02T07:40:29;6.10;;;2.08;;
9424;SDS011;17139;52.140;11.636;2022-08-02T07:42:56;4.07;;;2.00;;
9424;SDS011;17139;52.140;11.636;2022-08-02T07:45:24;1.70;;;1.60;;
9424;SDS011;17139;52.140;11.636;2022-08-02T07:47:52;6.60;;;1.92;;
9424;SDS011;17139;52.140;11.636;2022-08-02T07:50:22;3.38;;;1.95;;
9424;SDS011;17139;52.140;11.636;2022-08-02T07:52:49;4.47;;;2.25;;
9424;SDS011;17139;52.140;11.636;2022-08-02T07:55:16;3.20;;;1.70;;
9424;SDS011;17139;52.140;11.636;2022-08-02T07:57:44;5.40;;;2.00;;
9424;SDS011;17139;52.140;11.636;2022-08-02T08:00:12;5.93;;;1.83;;
9424;SDS011;17139;52.140;11.636;2022-08-02T08:02:41;7.03;;;1.80;;
9424;SDS011;17139;52.140;11.636;2022-08-02T08:05:08;2.30;;;1.83;;
9424;SDS011;17139;52.140;11.636;2022-08-02T08:07:37;3.17;;;1.75;;
9424;SDS011;17139;52.140;11.636;2022-08-02T08:10:04;2.13;;;1.60;;
9424;SDS011;17139;52.140;11.636;2022-08-02T08:12:32;2.10;;;1.90;;
9424;SDS011;17139;52.140;11.636;2022-08-02T08:14:59;5.85;;;1.80;;
9424;SDS011;17139;52.140;11.636;2022-08-02T08:17:27;4.45;;;2.00;;
9424;SDS011;17139;52.140;11.636;2022-08-02T08:19:54;2.40;;;2.05;;
9424;SDS011;17139;52.140;11.636;2022-08-02T08:22:22;2.83;;;1.75;;
9424;SDS011;17139;52.140;11.636;2022-08-02T08:24:50;4.10;;;1.83;;
9424;SDS011;17139;52.140;11.636;2022-08-02T08:27:17;3.25;;;1.80;;
9424;SDS011;17139;52.140;11.636;2022-08-02T08:29:46;6.07;;;2.17;;
9424;SDS011;17139;52.140;11.636;2022-08-02T08:32:15;3.50;;;2.00;;
9424;SDS011;17139;52.140;11.636;2022-08-02T08:34:43;4.38;;;1.92;;
9424;SDS011;17139;52.140;11.636;2022-08-02T08:37:10;2.85;;;1.55;;
9424;SDS011;17139;52.140;11.636;2022-08-02T08:39:37;2.15;;;1.92;;
9424;SDS011;17139;52.140;11.636;2022-08-02T08:42:06;4.82;;;1.90;;
9424;SDS011;17139;52.140;11.636;2022-08-02T08:44:33;3.72;;;1.90;;
9424;SDS011;17139;52.140;11.636;2022-08-02T08:47:02;2.00;;;1.70;;
9424;SDS011;17139;52.140;11.636;2022-08-02T08:49:30;2.72;;;2.22;;
9424;SDS011;17139;52.140;11.636;2022-08-02T08:52:01;5.07;;;2.25;;
9424;SDS011;17139;52.140;11.636;2022-08-02T08:54:30;3.53;;;1.98;;
9424;SDS011;17139;52.140;11.636;2022-08-02T08:56:58;3.45;;;1.55;;
9424;SDS011;17139;52.140;11.636;2022-08-02T08:59:27;4.18;;;1.88;;
9424;SDS011;17139;52.140;11.636;2022-08-02T09:01:54;6.57;;;2.30;;
9424;SDS011;17139;52.140;11.636;2022-08-02T09:04:22;1.85;;;1.75;;
9424;SDS011;17139;52.140;11.636;2022-08-02T09:06:49;5.78;;;2.22;;
9424;SDS011;17139;52.140;11.636;2022-08-02T09:09:16;5.53;;;2.15;;
9424;SDS011;17139;52.140;11.636;2022-08-02T09:11:43;3.85;;;1.63;;
9424;SDS011;17139;52.140;11.636;2022-08-02T09:14:10;2.13;;;2.03;;
9424;SDS011;17139;52.140;11.636;2022-08-02T09:16:39;3.67;;;1.92;;
9424;SDS011;17139;52.140;11.636;2022-08-02T09:19:16;3.75;;;2.20;;
9424;SDS011;17139;52.140;11.636;2022-08-02T09:21:45;4.18;;;2.00;;
9424;SDS011;17139;52.140;11.636;2022-08-02T09:24:15;3.10;;;2.10;;
9424;SDS011;17139;52.140;11.636;2022-08-02T09:26:43;1.83;;;1.73;;
9424;SDS011;17139;52.140;11.636;2022-08-02T09:29:11;2.17;;;2.00;;
9424;SDS011;17139;52.140;11.636;2022-08-02T09:31:40;2.75;;;1.80;;
9424;SDS011;17139;52.140;11.636;2022-08-02T09:34:08;2.20;;;1.90;;
9424;SDS011;17139;52.140;11.636;2022-08-02T09:36:36;3.25;;;2.17;;
9424;SDS011;17139;52.140;11.636;2022-08-02T09:39:06;1.80;;;1.70;;
9424;SDS011;17139;52.140;11.636;2022-08-02T09:41:35;1.73;;;1.60;;
9424;SDS011;17139;52.140;11.636;2022-08-02T09:44:05;1.98;;;1.88;;
9424;SDS011;17139;52.140;11.636;2022-08-02T09:46:35;3.67;;;1.70;;
9424;SDS011;17139;52.140;11.636;2022-08-02T09:49:05;3.20;;;1.95;;
9424;SDS011;17139;52.140;11.636;2022-08-02T09:51:34;2.28;;;2.08;;
9424;SDS011;17139;52.140;11.636;2022-08-02T09:54:03;2.95;;;1.98;;
9424;SDS011;17139;52.140;11.636;2022-08-02T09:56:43;3.85;;;2.20;;
9424;SDS011;17139;52.140;11.636;2022-08-02T09:59:13;2.22;;;2.13;;
9424;SDS011;17139;52.140;11.636;2022-08-02T10:01:42;3.33;;;1.98;;
9424;SDS011;17139;52.140;11.636;2022-08-02T10:04:12;4.05;;;1.95;;
9424;SDS011;17139;52.140;11.636;2022-08-02T10:06:40;2.30;;;2.10;;
9424;SDS011;17139;52.140;11.636;2022-08-02T10:09:10;1.90;;;1.80;;
9424;SDS011;17139;52.140;11.636;2022-08-02T10:11:37;4.43;;;2.10;;
9424;SDS011;17139;52.140;11.636;2022-08-02T10:14:06;4.40;;;2.17;;
9424;SDS011;17139;52.140;11.636;2022-08-02T10:16:35;4.55;;;2.33;;
9424;SDS011;17139;52.140;11.636;2022-08-02T10:19:02;1.92;;;1.80;;
9424;SDS011;17139;52.140;11.636;2022-08-02T10:21:38;2.78;;;2.20;;
9424;SDS011;17139;52.140;11.636;2022-08-02T10:24:10;2.30;;;2.10;;
9424;SDS011;17139;52.140;11.636;2022-08-02T10:26:39;4.80;;;2.30;;
9424;SDS011;17139;52.140;11.636;2022-08-02T10:29:08;3.45;;;1.75;;
9424;SDS011;17139;52.140;11.636;2022-08-02T10:31:37;2.03;;;1.83;;
9424;SDS011;17139;52.140;11.636;2022-08-02T10:34:08;3.67;;;2.08;;
9424;SDS011;17139;52.140;11.636;2022-08-02T10:36:39;2.25;;;1.95;;
9424;SDS011;17139;52.140;11.636;2022-08-02T10:39:07;2.10;;;1.90;;
9424;SDS011;17139;52.140;11.636;2022-08-02T10:41:39;1.52;;;1.42;;
9424;SDS011;17139;52.140;11.636;2022-08-02T10:44:21;2.08;;;1.80;;
9424;SDS011;17139;52.140;11.636;2022-08-02T10:46:49;4.35;;;2.08;;
9424;SDS011;17139;52.140;11.636;2022-08-02T10:49:17;4.60;;;1.95;;
9424;SDS011;17139;52.140;11.636;2022-08-02T10:51:56;2.33;;;2.08;;
9424;SDS011;17139;52.140;11.636;2022-08-02T10:54:32;2.08;;;1.88;;
9424;SDS011;17139;52.140;11.636;2022-08-02T10:57:00;3.42;;;1.77;;
9424;SDS011;17139;52.140;11.636;2022-08-02T10:59:29;1.90;;;1.80;;
9424;SDS011;17139;52.140;11.636;2022-08-02T11:01:57;2.42;;;1.58;;
9424;SDS011;17139;52.140;11.636;2022-08-02T11:04:29;2.13;;;1.92;;
9424;SDS011;17139;52.140;11.636;2022-08-02T11:07:08;2.03;;;1.90;;
9424;SDS011;17139;52.140;11.636;2022-08-02T11:09:38;1.90;;;1.80;;
9424;SDS011;17139;52.140;11.636;2022-08-02T11:12:06;1.83;;;1.55;;
9424;SDS011;17139;52.140;11.636;2022-08-02T11:14:36;2.53;;;1.70;;
9424;SDS011;17139;52.140;11.636;2022-08-02T11:17:04;1.77;;;1.60;;
9424;SDS011;17139;52.140;11.636;2022-08-02T11:19:33;1.80;;;1.60;;
9424;SDS011;17139;52.140;11.636;2022-08-02T11:22:01;2.40;;;1.90;;
9424;SDS011;17139;52.140;11.636;2022-08-02T11:24:31;2.33;;;2.00;;
9424;SDS011;17139;52.140;11.636;2022-08-02T11:27:00;2.03;;;1.92;;
9424;SDS011;17139;52.140;11.636;2022-08-02T11:29:31;1.67;;;1.58;;
9424;SDS011;17139;52.140;11.636;2022-08-02T11:31:59;1.85;;;1.70;;
9424;SDS011;17139;52.140;11.636;2022-08-02T11:34:27;2.95;;;2.08;;
9424;SDS011;17139;52.140;11.636;2022-08-02T11:36:56;1.80;;;1.70;;
9424;SDS011;17139;52.140;11.636;2022-08-02T11:39:23;2.92;;;1.92;;
9424;SDS011;17139;52.140;11.636;2022-08-02T11:41:53;2.58;;;1.70;;
9424;SDS011;17139;52.140;11.636;2022-08-02T11:44:23;1.85;;;1.67;;
9424;SDS011;17139;52.140;11.636;2022-08-02T11:46:52;1.85;;;1.60;;
9424;SDS011;17139;52.140;11.636;2022-08-02T11:49:20;2.13;;;1.85;;
9424;SDS011;17139;52.140;11.636;2022-08-02T11:51:51;1.95;;;1.85;;
9424;SDS011;17139;52.140;11.636;2022-08-02T11:54:26;1.65;;;1.55;;
9424;SDS011;17139;52.140;11.636;2022-08-02T11:57:09;1.70;;;1.60;;
9424;SDS011;17139;52.140;11.636;2022-08-02T11:59:37;1.35;;;1.35;;
9424;SDS011;17139;52.140;11.636;2022-08-02T12:02:04;1.80;;;1.70;;
9424;SDS011;17139;52.140;11.636;2022-08-02T12:04:32;2.03;;;1.60;;
9424;SDS011;17139;52.140;11.636;2022-08-02T12:07:00;3.70;;;1.67;;
9424;SDS011;17139;52.140;11.636;2022-08-02T12:09:28;2.97;;;1.92;;
9424;SDS011;17139;52.140;11.636;2022-08-02T12:11:57;2.60;;;1.70;;
9424;SDS011;17139;52.140;11.636;2022-08-02T12:14:27;2.65;;;1.50;;
9424;SDS011;17139;52.140;11.636;2022-08-02T12:16:56;1.65;;;1.55;;
9424;SDS011;17139;52.140;11.636;2022-08-02T12:19:41;2.30;;;1.70;;
9424;SDS011;17139;52.140;11.636;2022-08-02T12:22:10;5.00;;;2.03;;
9424;SDS011;17139;52.140;11.636;2022-08-02T12:24:40;2.22;;;1.75;;
9424;SDS011;17139;52.140;11.636;2022-08-02T12:27:08;1.50;;;1.40;;
9424;SDS011;17139;52.140;11.636;2022-08-02T12:29:38;2.33;;;1.90;;
9424;SDS011;17139;52.140;11.636;2022-08-02T12:32:06;2.20;;;2.00;;
9424;SDS011;17139;52.140;11.636;2022-08-02T12:34:34;2.08;;;1.80;;
9424;SDS011;17139;52.140;11.636;2022-08-02T12:37:03;2.75;;;1.70;;
9424;SDS011;17139;52.140;11.636;2022-08-02T12:39:34;2.70;;;1.77;;
9424;SDS011;17139;52.140;11.636;2022-08-02T12:42:06;1.45;;;1.40;;
9424;SDS011;17139;52.140;11.636;2022-08-02T12:44:36;2.30;;;1.63;;
9424;SDS011;17139;52.140;11.636;2022-08-02T12:47:14;1.55;;;1.45;;
9424;SDS011;17139;52.140;11.636;2022-08-02T12:49:41;2.05;;;1.52;;
9424;SDS011;17139;52.140;11.636;2022-08-02T12:52:18;1.55;;;1.42;;
9424;SDS011;17139;52.140;11.636;2022-08-02T12:54:45;1.67;;;1.58;;
9424;SDS011;17139;52.140;11.636;2022-08-02T12:57:16;4.07;;;1.30;;
9424;SDS011;17139;52.140;11.636;2022-08-02T12:59:48;1.67;;;1.50;;
9424;SDS011;17139;52.140;11.636;2022-08-02T13:02:16;1.55;;;1.45;;
9424;SDS011;17139;52.140;11.636;2022-08-02T13:04:44;1.38;;;1.38;;
9424;SDS011;17139;52.140;11.636;2022-08-02T13:07:11;2.33;;;1.70;;
9424;SDS011;17139;52.140;11.636;2022-08-02T13:09:39;2.70;;;1.40;;
9424;SDS011;17139;52.140;11.636;2022-08-02T13:12:09;1.52;;;1.42;;
9424;SDS011;17139;52.140;11.636;2022-08-02T13:14:36;2.77;;;1.90;;
9424;SDS011;17139;52.140;11.636;2022-08-02T13:17:05;1.52;;;1.42;;
9424;SDS011;17139;52.140;11.636;2022-08-02T13:19:32;1.65;;;1.55;;
9424;SDS011;17139;52.140;11.636;2022-08-02T13:21:59;1.40;;;1.38;;
9424;SDS011;17139;52.140;11.636;2022-08-02T13:24:26;1.15;;;1.15;;
9424;SDS011;17139;52.140;11.636;2022-08-02T13:26:53;1.25;;;1.20;;
9424;SDS011;17139;52.140;11.636;2022-08-02T13:29:20;1.83;;;1.40;;
9424;SDS011;17139;52.140;11.636;2022-08-02T13:31:47;1.15;;;1.10;;
9424;SDS011;17139;52.140;11.636;2022-08-02T13:34:15;1.50;;;1.40;;
9424;SDS011;17139;52.140;11.636;2022-08-02T13:36:42;1.45;;;1.35;;
9424;SDS011;17139;52.140;11.636;2022-08-02T13:39:09;1.75;;;1.42;;
9424;SDS011;17139;52.140;11.636;2022-08-02T13:41:36;2.28;;;1.40;;
9424;SDS011;17139;52.140;11.636;2022-08-02T13:44:03;1.27;;;1.27;;
9424;SDS011;17139;52.140;11.636;2022-08-02T13:46:31;1.33;;;1.33;;
9424;SDS011;17139;52.140;11.636;2022-08-02T13:48:59;2.20;;;1.20;;
9424;SDS011;17139;52.140;11.636;2022-08-02T13:51:27;1.40;;;1.20;;
9424;SDS011;17139;52.140;11.636;2022-08-02T13:53:54;2.33;;;1.40;;
9424;SDS011;17139;52.140;11.636;2022-08-02T13:56:21;1.30;;;1.30;;
9424;SDS011;17139;52.140;11.636;2022-08-02T13:58:48;1.20;;;1.20;;
9424;SDS011;17139;52.140;11.636;2022-08-02T14:01:16;4.20;;;1.40;;
9424;SDS011;17139;52.140;11.636;2022-08-02T14:03:42;1.65;;;1.55;;
9424;SDS011;17139;52.140;11.636;2022-08-02T14:06:10;2.88;;;1.52;;
9424;SDS011;17139;52.140;11.636;2022-08-02T14:08:38;1.48;;;1.38;;
9424;SDS011;17139;52.140;11.636;2022-08-02T14:11:05;1.50;;;1.40;;
9424;SDS011;17139;52.140;11.636;2022-08-02T14:13:32;1.58;;;1.48;;
9424;SDS011;17139;52.140;11.636;2022-08-02T14:15:59;2.50;;;1.25;;
9424;SDS011;17139;52.140;11.636;2022-08-02T14:18:26;2.10;;;1.40;;
9424;SDS011;17139;52.140;11.636;2022-08-02T14:20:53;1.42;;;1.33;;
9424;SDS011;17139;52.140;11.636;2022-08-02T14:23:20;1.23;;;1.20;;
9424;SDS011;17139;52.140;11.636;2022-08-02T14:25:48;1.50;;;1.42;;
9424;SDS011;17139;52.140;11.636;2022-08-02T14:28:15;1.25;;;1.25;;
9424;SDS011;17139;52.140;11.636;2022-08-02T14:30:42;1.40;;;1.40;;
9424;SDS011;17139;52.140;11.636;2022-08-02T14:33:09;1.15;;;1.15;;
9424;SDS011;17139;52.140;11.636;2022-08-02T14:35:36;2.15;;;1.40;;
9424;SDS011;17139;52.140;11.636;2022-08-02T14:38:03;1.30;;;1.30;;
9424;SDS011;17139;52.140;11.636;2022-08-02T14:40:30;2.28;;;1.30;;
9424;SDS011;17139;52.140;11.636;2022-08-02T14:42:59;1.63;;;1.52;;
9424;SDS011;17139;52.140;11.636;2022-08-02T14:45:26;1.20;;;1.20;;
9424;SDS011;17139;52.140;11.636;2022-08-02T14:47:54;1.92;;;1.40;;
9424;SDS011;17139;52.140;11.636;2022-08-02T14:50:25;1.40;;;1.40;;
9424;SDS011;17139;52.140;11.636;2022-08-02T14:52:52;1.58;;;1.48;;
9424;SDS011;17139;52.140;11.636;2022-08-02T14:55:20;1.10;;;1.10;;
9424;SDS011;17139;52.140;11.636;2022-08-02T14:57:47;1.20;;;1.20;;
9424;SDS011;17139;52.140;11.636;2022-08-02T15:00:16;1.35;;;1.30;;
9424;SDS011;17139;52.140;11.636;2022-08-02T15:02:44;1.30;;;1.30;;
9424;SDS011;17139;52.140;11.636;2022-08-02T15:05:11;1.42;;;1.33;;
9424;SDS011;17139;52.140;11.636;2022-08-02T15:07:39;1.27;;;1.27;;
9424;SDS011;17139;52.140;11.636;2022-08-02T15:10:06;1.58;;;1.50;;
9424;SDS011;17139;52.140;11.636;2022-08-02T15:12:34;1.33;;;1.10;;
9424;SDS011;17139;52.140;11.636;2022-08-02T15:15:01;1.60;;;1.50;;
9424;SDS011;17139;52.140;11.636;2022-08-02T15:17:30;1.40;;;1.40;;
9424;SDS011;17139;52.140;11.636;2022-08-02T15:19:57;1.30;;;1.30;;
9424;SDS011;17139;52.140;11.636;2022-08-02T15:22:24;1.40;;;1.40;;
9424;SDS011;17139;52.140;11.636;2022-08-02T15:24:52;1.35;;;1.35;;
9424;SDS011;17139;52.140;11.636;2022-08-02T15:27:19;1.48;;;1.40;;
9424;SDS011;17139;52.140;11.636;2022-08-02T15:29:47;1.52;;;1.40;;
9424;SDS011;17139;52.140;11.636;2022-08-02T15:32:14;1.60;;;1.50;;
9424;SDS011;17139;52.140;11.636;2022-08-02T15:34:46;1.63;;;1.30;;
9424;SDS011;17139;52.140;11.636;2022-08-02T15:37:13;1.42;;;1.30;;
9424;SDS011;17139;52.140;11.636;2022-08-02T15:39:40;3.22;;;1.40;;
9424;SDS011;17139;52.140;11.636;2022-08-02T15:42:08;1.40;;;1.40;;
9424;SDS011;17139;52.140;11.636;2022-08-02T15:44:35;1.30;;;1.30;;
9424;SDS011;17139;52.140;11.636;2022-08-02T15:47:04;2.13;;;1.33;;
9424;SDS011;17139;52.140;11.636;2022-08-02T15:49:32;1.58;;;1.48;;
9424;SDS011;17139;52.140;11.636;2022-08-02T15:52:00;1.42;;;1.40;;
9424;SDS011;17139;52.140;11.636;2022-08-02T15:54:28;1.45;;;1.35;;
9424;SDS011;17139;52.140;11.636;2022-08-02T15:56:56;1.15;;;1.15;;
9424;SDS011;17139;52.140;11.636;2022-08-02T15:59:23;1.33;;;1.33;;
9424;SDS011;17139;52.140;11.636;2022-08-02T16:01:50;3.03;;;1.60;;
9424;SDS011;17139;52.140;11.636;2022-08-02T16:04:17;1.88;;;1.77;;
9424;SDS011;17139;52.140;11.636;2022-08-02T16:06:44;2.20;;;2.10;;
9424;SDS011;17139;52.140;11.636;2022-08-02T16:09:12;1.50;;;1.40;;
9424;SDS011;17139;52.140;11.636;2022-08-02T16:11:40;1.60;;;1.50;;
9424;SDS011;17139;52.140;11.636;2022-08-02T16:14:07;1.48;;;1.48;;
9424;SDS011;17139;52.140;11.636;2022-08-02T16:16:35;2.40;;;1.73;;
9424;SDS011;17139;52.140;11.636;2022-08-02T16:19:04;1.63;;;1.55;;
9424;SDS011;17139;52.140;11.636;2022-08-02T16:21:32;1.70;;;1.58;;
9424;SDS011;17139;52.140;11.636;2022-08-02T16:23:59;2.47;;;1.50;;
9424;SDS011;17139;52.140;11.636;2022-08-02T16:26:28;1.48;;;1.45;;
9424;SDS011;17139;52.140;11.636;2022-08-02T16:28:58;1.85;;;1.25;;
9424;SDS011;17139;52.140;11.636;2022-08-02T16:31:26;1.50;;;1.50;;
9424;SDS011;17139;52.140;11.636;2022-08-02T16:33:53;2.03;;;1.55;;
9424;SDS011;17139;52.140;11.636;2022-08-02T16:36:21;1.60;;;1.50;;
9424;SDS011;17139;52.140;11.636;2022-08-02T16:38:48;2.10;;;1.50;;
9424;SDS011;17139;52.140;11.636;2022-08-02T16:41:15;1.83;;;1.77;;
9424;SDS011;17139;52.140;11.636;2022-08-02T16:43:44;2.75;;;2.08;;
9424;SDS011;17139;52.140;11.636;2022-08-02T16:46:11;3.40;;;3.20;;
9424;SDS011;17139;52.140;11.636;2022-08-02T16:48:38;1.60;;;1.60;;
9424;SDS011;17139;52.140;11.636;2022-08-02T16:51:06;1.25;;;1.20;;
9424;SDS011;17139;52.140;11.636;2022-08-02T16:53:33;1.65;;;1.55;;
9424;SDS011;17139;52.140;11.636;2022-08-02T16:56:00;1.95;;;1.42;;
9424;SDS011;17139;52.140;11.636;2022-08-02T16:58:27;1.90;;;1.80;;
9424;SDS011;17139;52.140;11.636;2022-08-02T17:00:56;2.05;;;1.50;;
9424;SDS011;17139;52.140;11.636;2022-08-02T17:03:23;1.42;;;1.42;;
9424;SDS011;17139;52.140;11.636;2022-08-02T17:05:50;1.40;;;1.40;;
9424;SDS011;17139;52.140;11.636;2022-08-02T17:08:17;3.35;;;1.60;;
9424;SDS011;17139;52.140;11.636;2022-08-02T17:10:45;3.30;;;1.90;;
9424;SDS011;17139;52.140;11.636;2022-08-02T17:13:15;2.22;;;1.98;;
9424;SDS011;17139;52.140;11.636;2022-08-02T17:15:43;2.85;;;2.65;;
9424;SDS011;17139;52.140;11.636;2022-08-02T17:18:11;2.72;;;2.53;;
9424;SDS011;17139;52.140;11.636;2022-08-02T17:20:39;1.90;;;1.80;;
9424;SDS011;17139;52.140;11.636;2022-08-02T17:23:06;1.65;;;1.45;;
9424;SDS011;17139;52.140;11.636;2022-08-02T17:25:33;1.52;;;1.52;;
9424;SDS011;17139;52.140;11.636;2022-08-02T17:28:00;1.45;;;1.35;;
9424;SDS011;17139;52.140;11.636;2022-08-02T17:30:28;1.50;;;1.50;;
9424;SDS011;17139;52.140;11.636;2022-08-02T17:32:55;1.83;;;1.67;;